Live aus Altenrhein
LIVE
LSZR 270420Z VRB01KT CAVOK 02/01 Q1021 NOSIG RMK A

People´s Info Center:

Öffnungszeiten Mo-Fr, 8-18 Uhr

 

info@peoples.ch

 
Aus Österreich:

T: +43 (0)5572 203 610

 

Aus CH / LI / DE:

T: +41 (0)71 858 51 60

 

Flughafen St. Gallen-Altenrhein: Abflug

 

Aktueller Flugstatus Abflüge
Plan Erw. nach Flug Info
06:30 06:30 Wien PE100
abgeflogen
06:30 06:30 Köln/Bonn PE200
planmässig
06:30 06:30 Friedrichshafen PE200
planmässig
10:40 10:40 Wien PE102
planmässig
14:20 14:20 Wien PE104
planmässig
17:20 17:20 Friedrichshafen PE202
planmässig
17:20 17:20 Köln/Bonn PE202
planmässig
18:15 18:15 Wien PE106
planmässig

Flughafen St. Gallen-Altenrhein: Ankunft

 

Aktueller Flugstatus Ankünfte
Plan Erw. von Flug Info
09:10 09:10 Wien PE101
planmässig
10:10 10:10 Friedrichshafen PE201
planmässig
10:10 10:10 Köln/Bonn PE201
planmässig
13:50 13:50 Wien PE103
planmässig
16:50 16:50 Wien PE105
planmässig
20:55 20:55 Wien PE107
planmässig
21:00 21:00 Friedrichshafen PE203
planmässig
21:00 21:00 Köln/Bonn PE203
planmässig